メインページ
METAR-TAF:

METAR-TAF

空港 :

バグダード, イラク

バグダード国際空港

緯度: 33-15-45N, 経度: 44-14-04E, 海抜: 35m

現時点の気象観測

当レポートは21分前の11:30(UTC)に作成
西の風 11kt、西/南西から北西の間で変化する
気温 32°C
湿度 26%
気圧 1011 hPa
視程10km以上
1,500メートル以下は雲なし、積乱雲なし

METAR: ORBI 241130Z 28011KT 250V320 CAVOK 32/10 Q1011

時間: 14:51 (11:51 UTC)

予報

当レポートは1時間51分前の10:00(UTC)に作成
予報は24日の 12時(UTC)から 25日の 12時(UTC)まで有効
西/北西の風 13kt
視程: 7000m
24日の 13時(UTC)から 24日の 15時(UTC)まで一時的に
視程: 4000m
広範な塵
24日の 19時(UTC)から 24日の 21時(UTC)まで徐々に
の風 6kt
視程: 8000m

TAF: ORBI 241000Z 2412/2512 29013KT 7000 NSC TEMPO 2413/2415 4000 DU BECMG 2419/2421 08006KT 8000 NSC

4,000以上の空港の気象観測と天気予報(METAR報とTAF報)

利用可能な観測所は地図上に黄色い丸と赤い丸で示す。

丸の上にカーソルを重ねると観測所名を参照できる。

次にクリックすると気象観測と天気予報を参照できる。

マップの切り替え:黒色「×」印の緑ボタンをクリックして拡大、「-」印の緑ボタンをクリックして縮小、緑色の三角印をクリックして隣りの地図に切り替え


METAR-TAF: